• Join FlightAware (Why Join?)
  • Login
  • US Flag 
06:21PM EDT


 

Airport Tracker/Info


-or-


 

Live Flight TrackerFlight Track Log ✈ BOE5 ✈ 07-Jun-2013 ✈ KMWH - KBFI

Flight Track Log - Related Links

Times and Time Zones

All times are in EDT time to prevent confusion due to time zone crossing. See the BOE5 flight status page for this flight to view local times or setup timezone preferences in your user account.

Time Position Orientation Groundspeed Altitude Reporting Facility
EDT Latitude Longitude Course Direction KTS MPH feet Rate Location/Type
04:36PM 47.2886 -119.3317 North 225 259 3,600  Level Seattle Center
04:37PM 47.3617 -119.3106 11° North 260 299 5,700 2,400 Climbing Seattle Center
04:38PM 47.4383 -119.2911 10° North 277 319 8,600 2,580 Climbing Seattle Center
04:39PM 47.5181 -119.2706 10° North 289 333 11,000 2,160 Climbing Seattle Center
04:40PM 47.6064 -119.2364 15° North 308 354 13,000 960 Climbing Seattle Center
04:41PM 47.3048 -119.2957 North  Level FlightAware Approximate
04:41PM 47.6525 -119.1131 61° Northeast 346 398 13,000  Level Seattle Center
04:42PM 47.6886 -118.9883 67° East 333 383 13,000 360 Level Seattle Center
04:43PM 47.7431 -118.9089 44° Northeast 295 339 13,800 480 Climbing Seattle Center
04:44PM 47.7944 -118.9531 330° Northwest 233 268 14,000 60 Climbing Seattle Center
04:45PM 47.8194 -119.0364 294° West 209 241 14,000  Level Seattle Center
04:46PM 47.8378 -119.1169 289° West 206 237 14,000  Level Seattle Center
04:47PM 47.8558 -119.1972 289° West 206 237 14,000  Level Seattle Center
04:48PM 47.8717 -119.2783 286° West 205 236 14,000  Level Seattle Center
04:49PM 47.8886 -119.3589 287° West 205 236 14,000  Level Seattle Center
04:50PM 47.8778 -119.4469 260° West 202 232 14,000  Level Seattle Center
04:51PM 47.8664 -119.5306 259° West 204 235 14,000  Level Seattle Center
04:52PM 47.8528 -119.6117 256° West 204 235 14,000  Level Seattle Center
04:53PM 47.8289 -119.6922 246° West 212 244 14,000  Level Seattle Center
04:54PM 47.7958 -119.7761 240° Southwest 217 250 14,000 240 Level Seattle Center
04:55PM 47.7656 -119.8486 238° Southwest 210 242 14,500 300 Climbing Seattle Center
04:56PM 47.7194 -119.8539 184° South 298 343 14,700 -240 Climbing Seattle Center
04:57PM 47.6956 -119.7250 105° East 326 375 14,100 -420 Descending Seattle Center
04:58PM 47.7436 -119.6472 47° Northeast 275 316 13,900 540 Descending Seattle Center
04:59PM 47.7939 -119.5897 38° Northeast 292 336 15,300 180 Climbing Seattle Center
05:00PM 47.7475 -119.4631 119° Southeast 323 372 14,300 -240 Descending Seattle Center
05:01PM 47.7325 -119.3431 100° East 295 339 14,900  Climbing Seattle Center
05:02PM 47.7250 -119.2394 96° East 262 302 14,300 -300 Descending Seattle Center
05:03PM 47.7192 -119.1344 95° East 257 296 14,300 360 Level Seattle Center
05:04PM 47.7672 -119.1000 26° Northeast 201 231 15,100 60 Climbing Seattle Center
05:05PM 47.7444 -119.1586 240° Southwest 176 203 14,500  Descending Seattle Center
05:06PM 47.7281 -119.2189 248° West 159 183 15,100  Climbing Seattle Center
05:07PM 47.7753 -119.1903 22° Northeast 219 252 14,500 -480 Descending Seattle Center
05:08PM 47.8242 -119.1339 38° Northeast 225 259 14,200 -300 Descending Seattle Center
05:09PM 47.8742 -119.0625 44° Northeast 247 284 14,000 -120 Descending Seattle Center
05:10PM 47.8944 -118.9539 74° East 271 312 14,000 -240 Level Seattle Center
05:11PM 47.8600 -118.8761 123° Southeast 262 302 13,600 180 Descending Seattle Center
05:12PM 47.8333 -118.9481 241° Southwest 186 214 14,400 240 Climbing Seattle Center
05:13PM 47.8300 -119.0147 266° West 162 186 14,200 -300 Descending Seattle Center
05:14PM 47.8244 -119.0892 264° West 180 207 13,900 240 Descending Seattle Center
05:15PM 47.8136 -119.1544 256° West 164 189 14,800 480 Climbing Seattle Center
05:16PM 47.7986 -119.2231 252° West 174 200 14,900 -240 Climbing Seattle Center
05:17PM 47.7808 -119.2933 249° West 172 198 14,400 -840 Descending Seattle Center
05:19PM 47.7653 -119.3664 252° West 185 213 13,300 -720 Descending Seattle Center
05:20PM 47.7467 -119.4461 251° West 190 219 13,000 -240 Descending Seattle Center
05:21PM 47.7278 -119.5131 247° West 180 207 12,900 600 Descending Seattle Center
05:22PM 47.7086 -119.5853 248° West 188 216 14,300 1,140 Climbing Seattle Center
05:23PM 47.6956 -119.6344 248° West 138 159 15,300 780 Climbing Seattle Center
05:24PM 47.6808 -119.7064 253° West 166 191 16,000 300 Climbing Seattle Center
05:25PM 47.6714 -119.7781 259° West 183 211 16,000 -360 Level Seattle Center
05:26PM 47.7122 -119.7458 28° Northeast 258 297 15,300  Descending Seattle Center
05:27PM 47.7061 -119.6267 94° East 285 328 16,100 120 Climbing Seattle Center
05:28PM 47.7147 -119.5097 84° East 284 327 15,600 -840 Descending Seattle Center
05:29PM 47.7217 -119.4000 85° East 250 288 14,400 -600 Descending Seattle Center
05:30PM 47.7314 -119.2842 83° East 276 318 14,400 -240 Level Seattle Center
05:31PM 47.7425 -119.1917 80° East 265 305 14,000 -300 Descending Seattle Center
05:32PM 47.7589 -119.0933 76° East 248 285 13,900  Descending Seattle Center
05:33PM 47.7789 -119.0014 72° East 238 274 14,000 840 Climbing Seattle Center
05:34PM 47.8050 -118.8886 71° East 240 276 15,700 720 Climbing Seattle Center
05:35PM 47.8239 -118.7994 72° East 232 267 15,500  Descending Seattle Center
05:36PM 47.7914 -118.7092 118° Southeast 254 292 15,800 480 Climbing Seattle Center
05:37PM 47.7428 -118.7281 195° South 190 219 16,500 -240 Climbing Seattle Center
05:38PM 47.7372 -118.7869 262° West 148 170 15,400 -1,080 Descending Seattle Center
05:39PM 47.7333 -118.8475 265° West 149 171 14,400 -1,560 Descending Seattle Center
05:40PM 47.7364 -118.9244 273° West 192 221 12,300 -1,140 Descending Seattle Center
05:41PM 47.7397 -119.0200 273° West 240 276 12,200 -300 Descending Seattle Center
05:42PM 47.7417 -119.1211 272° West 245 282 11,700 -120 Descending Seattle Center
05:43PM 47.7425 -119.2183 271° West 236 272 12,000 1,800 Climbing Seattle Center
05:44PM 47.7408 -119.3286 269° West 227 261 15,400 1,620 Climbing Seattle Center
05:45PM 47.7350 -119.4083 264° West 205 236 15,400 180 Level Seattle Center
05:46PM 47.7269 -119.5036 263° West 231 266 15,800 -660 Climbing Seattle Center
05:47PM 47.7194 -119.5836 262° West 201 231 14,100 -180 Descending Seattle Center
05:48PM 47.7083 -119.6897 261° West 235 270 15,500 1,020 Climbing Seattle Center
05:49PM 47.6814 -119.7794 246° West 259 298 16,200 240 Climbing Seattle Center
05:50PM 47.6272 -119.6906 132° Southeast 372 428 16,100 180 Descending Seattle Center
05:51PM 47.6436 -119.5469 80° East 354 407 16,600 -420 Climbing Seattle Center
05:52PM 47.6597 -119.4164 80° East 328 377 15,300 -360 Descending Seattle Center
05:53PM 47.6794 -119.2728 78° East 339 390 15,900 960 Climbing Seattle Center
05:54PM 47.6975 -119.1500 78° East 356 410 17,300 1,200 Climbing Seattle Center
05:55PM 47.7200 -118.9942 78° East 382 440 18,400 600 Climbing Seattle Center
05:56PM 47.7486 -118.8175 76° East 435 501 18,600 960 Climbing Seattle Center
05:57PM 47.7878 -118.5911 75° East 469 540 20,400 1,560 Climbing Seattle Center
05:58PM 47.8378 -118.4100 68° East 484 557 21,800 1,320 Climbing Seattle Center
05:59PM 47.9406 -118.3839 10° North 397 457 23,100 1,560 Climbing Seattle Center
06:00PM 48.0492 -118.3594 North 390 449 25,000 1,980 Climbing Seattle Center
06:01PM 48.1553 -118.3278 11° North 391 450 27,200 1,680 Climbing Seattle Center
06:02PM 48.2583 -118.2961 12° North 383 441 28,500 1,500 Climbing Seattle Center
06:03PM 48.3614 -118.2633 12° North 381 438 30,300 1,200 Climbing Seattle Center
06:04PM 48.4633 -118.2317 12° North 376 433 31,000 480 Climbing Seattle Center
06:05PM 48.5700 -118.1975 12° North 384 442 31,300 240 Climbing Seattle Center
06:06PM 48.6356 -118.2819 320° Northwest 363 418 31,500 240 Climbing Seattle Center
06:07PM 48.6536 -118.4228 281° West 344 396 31,800 540 Climbing Seattle Center
06:08PM 48.6711 -118.5681 280° West 350 403 32,600 660 Climbing Seattle Center
06:09PM 48.6903 -118.7117 281° West 351 404 33,200 1,920 Climbing Seattle Center
06:10PM 48.7000 -118.8444 276° West 324 373 36,600 480 Climbing Seattle Center
06:11PM 48.7144 -118.9931 278° West 301 346 34,200 -1,500 Descending Seattle Center
06:12PM 48.7153 -119.1431 271° West 353 406 33,600 -1,080 Descending Seattle Center
06:13PM 48.5903 -119.1119 171° South 510 587 32,100 -120 Descending Seattle Center
06:14PM 48.5283 -118.8828 112° Southeast 589 678 33,400 780 Climbing Seattle Center
06:15PM 48.5253 -118.6281 91° East 609 701 33,800 540 Climbing Seattle Center
06:16PM 48.5642 -118.3778 77° East 616 709 34,600 -1,140 Climbing Seattle Center
06:18PM 48.4367 -118.2844 154° Southeast 585 673 31,500 -840 Descending Seattle Center
06:19PM 48.2897 -118.2536 172° South 545 627 33,000 420 Climbing Seattle Center
06:20PM 48.1769 -118.0783 134° Southeast 594 684 32,400 -900 Descending Seattle Center
06:21PM 48.1400 -117.8306 103° East 608 700 31,300 -1,080 Descending Seattle Center
06:22PM 48.1047 -117.5931 102° East 592 681 30,300 -660 Descending Seattle Center
06:23PM 48.0525 -117.3847 110° East 537 618 30,000 -240 Descending Seattle Center
06:24PM 47.9311 -117.2881 152° Southeast 500 575 29,900  Descending Seattle Center
06:25PM 47.7950 -117.3589 199° South 440 506 30,000  Climbing Seattle Center
06:26PM 47.7397 -117.5036 240° Southwest 412 474 29,900 -60 Descending Seattle Center
06:27PM 47.7422 -117.6733 271° West 414 476 29,900  Level Seattle Center
06:28PM 47.7494 -117.8481 274° West 422 486 30,000  Climbing Seattle Center
06:29PM 47.7583 -118.0231 274° West 427 491 30,000 -60 Level Seattle Center
06:30PM 47.7653 -118.2006 273° West 430 495 29,900  Descending Seattle Center
06:31PM 47.7719 -118.3753 273° West 427 491 30,000  Climbing Seattle Center
06:32PM 47.7797 -118.5525 274° West 429 494 29,900  Descending Seattle Center
06:33PM 47.7864 -118.7303 273° West 432 497 30,000  Climbing Seattle Center
06:34PM 47.7931 -118.9078 273° West 431 496 29,900  Descending Seattle Center
06:35PM 47.7986 -119.0889 273° West 436 502 30,000  Climbing Seattle Center
06:36PM 47.8056 -119.2678 273° West 439 505 30,000  Level Seattle Center
06:37PM 47.8119 -119.4828 273° West 437 503 30,000 -60 Level Seattle Center
06:38PM 47.8183 -119.6644 273° West 439 505 29,900 -120 Descending Seattle Center
06:39PM 47.8222 -119.8417 272° West 432 497 29,800 -600 Descending Seattle Center
06:40PM 47.8283 -120.0156 273° West 423 487 28,800 -1,140 Descending Seattle Center
06:41PM 47.8322 -120.1869 272° West 417 480 27,500 -1,140 Descending Seattle Center
06:42PM 47.8361 -120.3622 272° West 424 488 26,500 -1,380 Descending Seattle Center
06:43PM 47.8431 -120.5269 274° West 407 468 24,700 -2,100 Descending Seattle Center
06:44PM 47.8483 -120.6919 273° West 402 463 22,300 -2,460 Descending Seattle Center
06:45PM 47.8511 -120.8717 271° West 390 449 19,700 -2,460 Descending Seattle Center
06:46PM 47.8503 -121.0272 270° West 382 440 17,400 -2,340 Descending Seattle Center
06:47PM 47.8553 -121.1325 274° West 377 434 15,800 -2,280 Descending Seattle Center
06:47PM 47.8528 -121.1764 265° West 368 423 15,100 -2,280 Descending Seattle Center
06:48PM 47.8600 -121.2789 276° West 358 412 13,500 -2,100 Descending Seattle Center
06:48PM 47.8619 -121.3219 274° West 358 412 13,000 -1,440 Descending Seattle Center
06:49PM 47.8697 -121.4358 276° West 351 404 12,100 -1,020 Descending Seattle Center
06:49PM 47.8717 -121.4625 276° West 341 392 12,000 -480 Descending Seattle Center
06:50PM 47.8786 -121.5842 275° West 299 344 11,500 -720 Descending Seattle Center
06:51PM 47.8839 -121.6800 275° West 258 297 10,800 -840 Descending Seattle Center
06:51PM 47.8844 -121.6917 274° West 267 307 10,700 -1,020 Descending Seattle Center
06:52PM 47.8417 -121.7669 230° Southwest 273 314 9,800 -1,200 Descending Seattle Center
06:52PM 47.8228 -121.7897 219° Southwest 274 315 9,500 -1,200 Descending Seattle Center
06:53PM 47.7883 -121.8367 222° Southwest 275 316 8,700 -1,320 Descending Seattle Center
06:53PM 47.7664 -121.8653 221° Southwest 275 316 8,200 -1,500 Descending Seattle Center
06:54PM 47.7406 -121.9200 235° Southwest 271 312 7,200 -1,620 Descending Seattle Center
06:54PM 47.7394 -121.9600 268° West 266 306 6,600 -1,500 Descending Seattle Center
06:55PM 47.7364 -122.0344 267° West 257 296 5,700 -1,500 Descending Seattle Center
06:55PM 47.7361 -122.0742 269° West 259 298 5,100 -1,380 Descending Seattle Center
06:56PM 47.7350 -122.1508 269° West 262 302 4,200 -1,200 Descending Seattle Center
06:56PM 47.7344 -122.1817 268° West 261 300 3,900 -840 Descending Seattle Center
06:57PM 47.7342 -122.2533 270° West 246 283 3,400 -900 Descending Seattle Center
06:57PM 47.7328 -122.2814 266° West 245 282 3,000 -1,200 Descending Seattle Center
06:58PM 47.7258 -122.3436 261° West 242 278 2,300 -840 Descending Seattle Center
06:58PM 47.7203 -122.3761 256° West 238 274 2,200  Descending Seattle Center
06:59PM 47.6917 -122.4283 231° Southwest 217 250 2,300  Climbing Seattle Center
06:59PM 47.6739 -122.4242 171° South 217 250 2,200 -120 Descending Seattle Center
07:00PM 47.6475 -122.4033 152° Southeast 176 203 2,200 -120 Level Seattle Center
07:00PM 47.6306 -122.3889 150° Southeast 183 211 2,100 -600 Descending Seattle Center
07:01PM 47.6061 -122.3703 153° Southeast 163 188 1,600 -900 Descending Seattle Center
07:01PM 47.5889 -122.3528 146° Southeast 161 185 1,200 -900 Descending Seattle Center
07:02PM 47.5656 -122.3336 151° Southeast 153 176 600 -900 Descending Seattle Center
07:02PM 47.5517 -122.3211 149° Southeast 156 180 300 7,680 Descending Seattle Center
07:03PM 47.5211 -122.2967 152° Southeast 156 180 11,000 10,500 Climbing Seattle Center
07:05PM 47.5167 -122.3000 186° South  Level FlightAware Approximate